Time,TemperatureF,DewpointF,PressureIn,WindDirection,WindDirectionDegrees,WindSpeedMPH,WindSpeedGustMPH,Humidity,HourlyPrecipIn,Conditions,Clouds,dailyrainin,SoftwareType,DateUTC
2013-11-18 00:00:00,70.8,68.1,29.96,SSW,195,0.0,0.0,91,0.00,,FEW080,0.00,VWS V14.01,2013-11-18 05:00:00,
2013-11-18 00:01:00,70.8,68.1,29.96,SSW,195,0.0,0.0,91,0.00,,CLR,0.00,VWS V14.01,2013-11-18 05:01:00,
2013-11-18 00:02:00,70.8,68.1,29.96,SSW,195,0.0,0.0,91,0.00,,CLR,0.00,VWS V14.01,2013-11-18 05:02:00,
2013-11-18 00:05:00,70.8,68.1,29.96,SSW,195,0.0,0.0,91,0.00,,CLR,0.00,VWS V14.01,2013-11-18 05:05:00,
2013-11-18 00:10:00,70.6,67.8,29.96,SSW,195,0.0,0.0,91,0.00,,CLR,0.00,VWS V14.01,2013-11-18 05:10:00,
2013-11-18 00:15:00,70.6,67.8,29.96,SSW,195,0.0,0.0,91,0.00,,CLR,0.00,VWS V14.01,2013-11-18 05:15:00,
2013-11-18 00:20:00,70.4,67.7,29.96,SSW,195,0.0,0.0,91,0.00,,CLR,0.00,VWS V14.01,2013-11-18 05:20:00,
2013-11-18 00:25:00,70.4,68.0,29.96,SSW,195,0.0,0.0,92,0.00,,CLR,0.00,VWS V14.01,2013-11-18 05:25:00,
2013-11-18 00:30:00,70.4,68.0,29.96,SSW,195,0.0,0.0,92,0.00,,CLR,0.00,VWS V14.01,2013-11-18 05:30:00,
2013-11-18 00:35:00,70.4,68.0,29.96,SSW,195,0.0,0.0,92,0.00,,CLR,0.00,VWS V14.01,2013-11-18 05:35:00,
2013-11-18 00:40:00,70.4,68.0,29.96,SSW,195,0.0,0.0,92,0.00,,CLR,0.00,VWS V14.01,2013-11-18 05:40:00,
2013-11-18 00:45:00,70.3,67.9,29.96,SSW,195,0.0,0.0,92,0.00,,CLR,0.00,VWS V14.01,2013-11-18 05:45:00,
2013-11-18 00:50:00,70.3,67.9,29.96,SSW,195,0.0,0.0,92,0.00,,CLR,0.00,VWS V14.01,2013-11-18 05:50:00,
2013-11-18 00:55:00,70.3,67.9,29.96,SSW,195,0.0,0.0,92,0.00,,CLR,0.00,VWS V14.01,2013-11-18 05:55:00,
2013-11-18 01:00:00,70.3,67.9,29.96,SSW,195,0.0,0.0,92,0.00,,CLR,0.00,VWS V14.01,2013-11-18 06:00:00,
2013-11-18 01:05:00,70.3,67.9,29.96,SSW,195,0.0,0.0,92,0.00,,CLR,0.00,VWS V14.01,2013-11-18 06:05:00,
2013-11-18 01:10:00,70.1,67.7,29.96,SSW,195,0.0,0.0,92,0.00,,CLR,0.00,VWS V14.01,2013-11-18 06:10:00,
2013-11-18 01:15:00,70.3,67.9,29.96,SSW,195,0.0,0.0,92,0.00,,CLR,0.00,VWS V14.01,2013-11-18 06:15:00,
2013-11-18 01:20:00,70.3,67.9,29.96,SSW,195,0.0,0.0,92,0.00,,CLR,0.00,VWS V14.01,2013-11-18 06:20:00,
2013-11-18 01:25:00,70.4,68.0,29.96,SSW,195,0.0,0.0,92,0.00,,CLR,0.00,VWS V14.01,2013-11-18 06:25:00,
2013-11-18 01:30:00,70.6,68.2,29.96,SSW,195,0.0,0.0,92,0.00,,CLR,0.00,VWS V14.01,2013-11-18 06:30:00,
2013-11-18 01:35:00,70.6,68.2,29.96,SSW,195,0.0,0.0,92,0.00,,CLR,0.00,VWS V14.01,2013-11-18 06:35:00,
2013-11-18 01:40:00,70.6,68.2,29.96,SSW,195,0.0,0.0,92,0.00,,CLR,0.00,VWS V14.01,2013-11-18 06:40:00,
2013-11-18 01:45:00,70.6,68.2,29.96,SSW,195,0.0,0.0,92,0.00,,CLR,0.00,VWS V14.01,2013-11-18 06:45:00,
2013-11-18 01:50:00,70.8,68.4,29.96,SSW,195,0.0,0.0,92,0.00,,CLR,0.00,VWS V14.01,2013-11-18 06:50:00,
2013-11-18 01:55:00,70.8,68.4,29.96,SSW,195,0.0,0.0,92,0.00,,CLR,0.00,VWS V14.01,2013-11-18 06:55:00,
2013-11-18 02:00:00,70.8,68.4,29.95,SSW,195,0.0,0.0,92,0.00,,SCT037,0.00,VWS V14.01,2013-11-18 07:00:00,
2013-11-18 02:05:00,70.8,68.4,29.95,SSW,195,0.0,0.0,92,0.00,,SCT037,0.00,VWS V14.01,2013-11-18 07:05:00,
2013-11-18 02:10:00,70.9,68.5,29.95,SSW,195,0.0,0.0,92,0.00,,SCT037,0.00,VWS V14.01,2013-11-18 07:10:00,
2013-11-18 02:15:00,70.9,68.5,29.95,SSW,195,0.0,0.0,92,0.00,,SCT037,0.00,VWS V14.01,2013-11-18 07:15:00,
2013-11-18 02:20:00,70.9,68.5,29.95,SSW,195,0.0,0.0,92,0.00,,SCT037,0.00,VWS V14.01,2013-11-18 07:20:00,
2013-11-18 02:25:00,70.9,68.5,29.95,SSW,195,0.0,0.0,92,0.00,,SCT037,0.00,VWS V14.01,2013-11-18 07:25:00,
2013-11-18 02:30:00,70.9,68.5,29.94,SSW,195,0.0,0.0,92,0.00,,SCT037,0.00,VWS V14.01,2013-11-18 07:30:00,
2013-11-18 02:35:00,70.9,68.5,29.94,SSW,195,0.0,0.0,92,0.00,,SCT037,0.00,VWS V14.01,2013-11-18 07:35:00,
2013-11-18 02:40:00,70.9,68.5,29.94,SSW,195,0.0,0.0,92,0.00,,SCT037,0.00,VWS V14.01,2013-11-18 07:40:00,
2013-11-18 02:45:00,70.8,68.4,29.94,SSW,195,0.0,0.0,92,0.00,,SCT037,0.00,VWS V14.01,2013-11-18 07:45:00,
2013-11-18 02:50:00,70.6,68.2,29.94,SSW,195,0.0,0.0,92,0.00,,SCT037,0.00,VWS V14.01,2013-11-18 07:50:00,
2013-11-18 02:55:00,70.6,68.2,29.94,SSW,195,0.0,0.0,92,0.00,,SCT037,0.00,VWS V14.01,2013-11-18 07:55:00,
2013-11-18 03:00:00,70.6,68.2,29.94,SSW,195,0.0,0.0,92,0.00,,OVC047,0.00,VWS V14.01,2013-11-18 08:00:00,
2013-11-18 03:05:00,70.4,68.0,29.94,SSW,195,0.0,0.0,92,0.00,,OVC047,0.00,VWS V14.01,2013-11-18 08:05:00,
2013-11-18 03:10:00,70.4,68.0,29.94,SSW,195,0.0,0.0,92,0.00,,OVC047,0.00,VWS V14.01,2013-11-18 08:10:00,
2013-11-18 03:15:00,70.3,67.9,29.94,SSW,195,0.0,0.0,92,0.00,,OVC047,0.00,VWS V14.01,2013-11-18 08:15:00,
2013-11-18 03:20:00,70.1,67.7,29.94,SSW,195,0.0,0.0,92,0.00,,OVC047,0.00,VWS V14.01,2013-11-18 08:20:00,
2013-11-18 03:25:00,70.1,68.0,29.94,SSW,195,0.0,0.0,93,0.00,,OVC047,0.00,VWS V14.01,2013-11-18 08:25:00,
2013-11-18 03:30:00,70.1,68.0,29.93,SSW,195,0.0,0.0,93,0.00,,OVC047,0.00,VWS V14.01,2013-11-18 08:30:00,
2013-11-18 03:35:00,69.9,67.8,29.93,SSW,195,0.0,0.0,93,0.00,,OVC047,0.00,VWS V14.01,2013-11-18 08:35:00,
2013-11-18 03:40:00,69.9,67.8,29.93,SSW,195,0.0,0.0,93,0.00,,OVC047,0.00,VWS V14.01,2013-11-18 08:40:00,
2013-11-18 03:45:00,69.9,67.8,29.93,SSW,195,0.0,0.0,93,0.00,,OVC047,0.00,VWS V14.01,2013-11-18 08:45:00,
2013-11-18 03:50:00,69.9,67.8,29.93,SSW,195,0.0,0.0,93,0.00,,OVC047,0.00,VWS V14.01,2013-11-18 08:50:00,
2013-11-18 03:55:00,69.9,67.8,29.93,SSW,195,0.0,0.0,93,0.00,,OVC047,0.00,VWS V14.01,2013-11-18 08:55:00,
2013-11-18 04:00:00,69.9,67.8,29.93,SSW,195,0.0,0.0,93,0.00,,FEW055,0.00,VWS V14.01,2013-11-18 09:00:00,
2013-11-18 04:05:00,69.9,67.8,29.93,SSW,195,0.0,0.0,93,0.00,,FEW055,0.00,VWS V14.01,2013-11-18 09:05:00,
2013-11-18 04:10:00,69.9,67.8,29.93,SSW,195,0.0,0.0,93,0.00,,FEW055,0.00,VWS V14.01,2013-11-18 09:10:00,
2013-11-18 04:15:00,69.8,67.7,29.93,SSW,195,0.0,0.0,93,0.00,,FEW055,0.00,VWS V14.01,2013-11-18 09:15:00,
2013-11-18 04:20:00,69.6,67.5,29.93,SSW,195,0.0,0.0,93,0.00,,FEW055,0.00,VWS V14.01,2013-11-18 09:20:00,
2013-11-18 04:25:00,69.6,67.5,29.93,SSW,195,0.0,0.0,93,0.00,,FEW055,0.00,VWS V14.01,2013-11-18 09:25:00,
2013-11-18 04:30:00,69.6,67.8,29.93,SSW,195,0.0,0.0,94,0.00,,FEW055,0.00,VWS V14.01,2013-11-18 09:30:00,
2013-11-18 04:35:00,69.6,67.8,29.93,SSW,195,0.0,0.0,94,0.00,,FEW055,0.00,VWS V14.01,2013-11-18 09:35:00,
2013-11-18 04:40:00,69.6,67.8,29.93,SSW,195,0.0,0.0,94,0.00,,FEW055,0.00,VWS V14.01,2013-11-18 09:40:00,
2013-11-18 04:45:00,69.6,67.8,29.93,SSW,195,0.0,0.0,94,0.00,,FEW055,0.00,VWS V14.01,2013-11-18 09:45:00,
2013-11-18 04:50:00,69.6,67.8,29.93,SSW,195,0.0,0.0,94,0.00,,FEW055,0.00,VWS V14.01,2013-11-18 09:50:00,
2013-11-18 04:55:00,69.6,67.8,29.93,SSW,195,0.0,0.0,94,0.00,,FEW055,0.00,VWS V14.01,2013-11-18 09:55:00,
2013-11-18 05:00:00,69.6,67.8,29.93,SSW,195,0.0,0.0,94,0.00,,CLR,0.00,VWS V14.01,2013-11-18 10:00:00,
2013-11-18 05:05:00,69.6,67.8,29.93,SSW,195,0.0,0.0,94,0.00,,CLR,0.00,VWS V14.01,2013-11-18 10:05:00,
2013-11-18 05:10:00,69.6,67.8,29.93,SSW,195,0.0,0.0,94,0.00,,CLR,0.00,VWS V14.01,2013-11-18 10:10:00,
2013-11-18 05:15:00,69.6,67.8,29.93,SSW,195,0.0,0.0,94,0.00,,CLR,0.00,VWS V14.01,2013-11-18 10:15:00,
2013-11-18 05:20:00,69.6,67.8,29.93,SSW,195,0.0,0.0,94,0.00,,CLR,0.00,VWS V14.01,2013-11-18 10:20:00,
2013-11-18 05:25:00,69.6,67.8,29.93,SSW,195,0.0,0.0,94,0.00,,CLR,0.00,VWS V14.01,2013-11-18 10:25:00,
2013-11-18 05:30:00,69.6,67.8,29.93,SSW,195,0.0,0.0,94,0.00,,CLR,0.00,VWS V14.01,2013-11-18 10:30:00,
2013-11-18 05:35:00,69.6,67.8,29.93,SSW,192,0.0,0.0,94,0.00,,CLR,0.00,VWS V14.01,2013-11-18 10:35:00,
2013-11-18 05:40:00,69.4,67.6,29.93,SSW,192,0.0,0.0,94,0.00,,CLR,0.00,VWS V14.01,2013-11-18 10:40:00,
2013-11-18 05:45:00,69.4,67.6,29.93,SSW,192,0.0,0.0,94,0.00,,CLR,0.00,VWS V14.01,2013-11-18 10:45:00,
2013-11-18 05:50:00,69.4,67.6,29.93,SSW,192,0.0,0.0,94,0.00,,CLR,0.00,VWS V14.01,2013-11-18 10:50:00,
2013-11-18 05:55:00,69.4,67.6,29.93,SSW,192,0.0,0.0,94,0.00,,CLR,0.00,VWS V14.01,2013-11-18 10:55:00,
2013-11-18 06:00:00,69.4,67.6,29.93,SSW,192,0.0,0.0,94,0.00,,FEW036,0.00,VWS V14.01,2013-11-18 11:00:00,
2013-11-18 06:05:00,69.4,67.6,29.93,South,191,0.0,0.0,94,0.00,,FEW036,0.00,VWS V14.01,2013-11-18 11:05:00,
2013-11-18 06:10:00,69.4,67.6,29.93,South,191,0.0,0.0,94,0.00,,FEW036,0.00,VWS V14.01,2013-11-18 11:10:00,
2013-11-18 06:15:00,69.4,67.6,29.93,South,191,0.0,0.0,94,0.00,,FEW036,0.00,VWS V14.01,2013-11-18 11:15:00,
2013-11-18 06:20:00,69.4,67.6,29.93,South,191,0.0,0.0,94,0.00,,FEW036,0.00,VWS V14.01,2013-11-18 11:20:00,
2013-11-18 06:25:00,69.4,67.6,29.93,South,191,0.0,0.0,94,0.00,,FEW036,0.00,VWS V14.01,2013-11-18 11:25:00,
2013-11-18 06:30:00,69.4,67.6,29.93,South,191,0.0,0.0,94,0.00,,FEW036,0.00,VWS V14.01,2013-11-18 11:30:00,
2013-11-18 06:35:00,69.6,67.8,29.93,South,191,0.0,1.0,94,0.00,,FEW036,0.00,VWS V14.01,2013-11-18 11:35:00,
2013-11-18 06:40:00,69.6,67.8,29.93,South,191,0.0,1.0,94,0.00,,FEW036,0.00,VWS V14.01,2013-11-18 11:40:00,
2013-11-18 06:45:00,69.6,67.8,29.93,South,191,0.0,1.0,94,0.00,,FEW036,0.00,VWS V14.01,2013-11-18 11:45:00,
2013-11-18 06:50:00,69.6,67.8,29.93,South,191,0.0,1.0,94,0.00,,FEW036,0.00,VWS V14.01,2013-11-18 11:50:00,
2013-11-18 06:55:00,69.6,67.8,29.93,South,191,0.0,1.0,94,0.00,,FEW036,0.00,VWS V14.01,2013-11-18 11:55:00,
2013-11-18 07:00:00,69.8,68.0,29.93,South,191,0.0,0.0,94,0.00,,CLR,0.00,VWS V14.01,2013-11-18 12:00:00,
2013-11-18 07:05:00,69.8,68.0,29.93,South,191,0.0,0.0,94,0.00,,CLR,0.00,VWS V14.01,2013-11-18 12:05:00,
2013-11-18 07:10:00,69.8,68.0,29.93,South,191,0.0,0.0,94,0.00,,CLR,0.00,VWS V14.01,2013-11-18 12:10:00,
2013-11-18 07:15:00,69.8,68.0,29.93,South,191,0.0,0.0,94,0.00,,CLR,0.00,VWS V14.01,2013-11-18 12:15:00,
2013-11-18 07:21:00,69.8,68.0,29.93,South,191,0.0,0.0,94,0.00,,CLR,0.00,VWS V14.01,2013-11-18 12:21:00,
2013-11-18 07:26:00,69.9,68.1,29.93,South,191,0.0,0.0,94,0.00,,CLR,0.00,VWS V14.01,2013-11-18 12:26:00,
2013-11-18 07:30:00,70.1,68.3,29.93,South,191,0.0,0.0,94,0.00,,FEW080,0.00,VWS V14.01,2013-11-18 12:30:00,
2013-11-18 07:31:00,70.1,68.3,29.93,South,191,0.0,0.0,94,0.00,,CLR,0.00,VWS V14.01,2013-11-18 12:31:00,
2013-11-18 07:36:00,70.4,68.6,29.93,South,191,0.0,0.0,94,0.00,,CLR,0.00,VWS V14.01,2013-11-18 12:36:00,
2013-11-18 07:41:00,70.6,68.5,29.93,South,191,0.0,0.0,93,0.00,,CLR,0.00,VWS V14.01,2013-11-18 12:41:00,
2013-11-18 07:46:00,70.9,68.8,29.94,South,181,0.0,3.0,93,0.00,,CLR,0.00,VWS V14.01,2013-11-18 12:46:00,
2013-11-18 07:51:00,71.3,69.2,29.94,South,169,0.0,3.0,93,0.00,,CLR,0.00,VWS V14.01,2013-11-18 12:51:00,
2013-11-18 07:56:00,71.6,69.2,29.94,SSE,161,0.0,4.0,92,0.00,,CLR,0.00,VWS V14.01,2013-11-18 12:56:00,
2013-11-18 08:00:00,71.8,69.4,29.94,SSE,157,3.0,4.0,92,0.00,,FEW080,0.00,VWS V14.01,2013-11-18 13:00:00,
2013-11-18 08:01:00,72.0,69.2,29.94,SSE,157,0.0,3.0,91,0.00,,CLR,0.00,VWS V14.01,2013-11-18 13:01:00,
2013-11-18 08:06:00,72.1,69.3,29.94,SSE,155,0.0,3.0,91,0.00,,CLR,0.00,VWS V14.01,2013-11-18 13:06:00,
2013-11-18 08:11:00,72.5,69.4,29.94,SSE,152,0.0,3.0,90,0.00,,CLR,0.00,VWS V14.01,2013-11-18 13:11:00,
2013-11-18 08:16:00,72.8,69.7,29.94,SSE,151,2.0,3.0,90,0.00,,CLR,0.00,VWS V14.01,2013-11-18 13:16:00,
2013-11-18 08:21:00,73.5,70.1,29.94,SSE,151,0.0,3.0,89,0.00,,CLR,0.00,VWS V14.01,2013-11-18 13:21:00,
2013-11-18 08:26:00,74.0,70.2,29.94,SSE,150,0.0,3.0,88,0.00,,CLR,0.00,VWS V14.01,2013-11-18 13:26:00,
2013-11-18 08:30:00,74.4,70.3,29.94,SSE,150,0.0,3.0,87,0.00,,FEW080,0.00,VWS V14.01,2013-11-18 13:30:00,
2013-11-18 08:31:00,74.7,70.6,29.94,SSE,150,0.0,0.0,87,0.00,,CLR,0.00,VWS V14.01,2013-11-18 13:31:00,
2013-11-18 08:36:00,75.1,69.9,29.94,SSE,152,0.0,3.0,84,0.00,,CLR,0.00,VWS V14.01,2013-11-18 13:36:00,
2013-11-18 08:41:00,75.8,71.0,29.94,SSE,152,0.0,3.0,85,0.00,,CLR,0.00,VWS V14.01,2013-11-18 13:41:00,
2013-11-18 08:46:00,76.0,70.5,29.94,SSE,152,0.0,3.0,83,0.00,,CLR,0.00,VWS V14.01,2013-11-18 13:46:00,
2013-11-18 08:51:00,76.1,70.6,29.94,SSE,154,0.0,3.0,83,0.00,,CLR,0.00,VWS V14.01,2013-11-18 13:51:00,
2013-11-18 08:56:00,76.1,69.8,29.94,South,171,0.0,3.0,81,0.00,,CLR,0.00,VWS V14.01,2013-11-18 13:56:00,
2013-11-18 09:00:00,76.3,70.1,29.94,South,182,0.0,3.0,81,0.00,,FEW080,0.00,VWS V14.01,2013-11-18 14:00:00,
2013-11-18 09:01:00,76.5,69.9,29.94,SSW,196,0.0,0.0,80,0.00,,CLR,0.00,VWS V14.01,2013-11-18 14:01:00,
2013-11-18 09:06:00,76.5,69.9,29.94,SSW,196,0.0,0.0,80,0.00,,CLR,0.00,VWS V14.01,2013-11-18 14:06:00,
2013-11-18 09:11:00,76.7,70.1,29.94,South,181,0.0,2.0,80,0.00,,CLR,0.00,VWS V14.01,2013-11-18 14:11:00,
2013-11-18 09:16:00,76.7,70.1,29.95,SSW,205,0.0,2.0,80,0.00,,CLR,0.00,VWS V14.01,2013-11-18 14:16:00,
2013-11-18 09:21:00,76.7,69.7,29.95,SW,215,0.0,2.0,79,0.00,,CLR,0.00,VWS V14.01,2013-11-18 14:21:00,
2013-11-18 09:26:00,76.7,69.7,29.95,SW,219,0.0,2.0,79,0.00,,CLR,0.00,VWS V14.01,2013-11-18 14:26:00,
2013-11-18 09:30:00,76.7,69.7,29.96,SSW,213,0.0,1.0,79,0.00,,CLR,0.00,VWS V14.01,2013-11-18 14:30:00,
2013-11-18 09:35:00,76.8,69.8,29.96,SW,215,0.0,1.0,79,0.00,,CLR,0.00,VWS V14.01,2013-11-18 14:35:00,
2013-11-18 09:40:00,76.8,69.4,29.96,SW,216,0.0,1.0,78,0.00,,CLR,0.00,VWS V14.01,2013-11-18 14:40:00,
2013-11-18 09:45:00,77.2,69.8,29.96,SSW,209,0.0,1.0,78,0.00,,CLR,0.00,VWS V14.01,2013-11-18 14:45:00,
2013-11-18 09:50:00,77.2,69.8,29.96,SW,216,0.0,2.0,78,0.00,,CLR,0.00,VWS V14.01,2013-11-18 14:50:00,
2013-11-18 09:55:00,77.2,69.8,29.96,SW,230,0.0,2.0,78,0.00,,CLR,0.00,VWS V14.01,2013-11-18 14:55:00,
2013-11-18 10:00:00,77.4,69.6,29.96,SSW,198,0.0,2.0,77,0.00,,CLR,0.00,VWS V14.01,2013-11-18 15:00:00,
2013-11-18 10:05:00,77.4,69.6,29.96,SSW,202,0.0,2.0,77,0.00,,CLR,0.00,VWS V14.01,2013-11-18 15:05:00,
2013-11-18 10:10:00,77.4,69.6,29.96,SW,222,0.0,2.0,77,0.00,,CLR,0.00,VWS V14.01,2013-11-18 15:10:00,
2013-11-18 10:15:00,77.6,69.8,29.96,South,185,0.0,2.0,77,0.00,,CLR,0.00,VWS V14.01,2013-11-18 15:15:00,
2013-11-18 10:20:00,77.7,69.9,29.96,SW,220,0.0,2.0,77,0.00,,CLR,0.00,VWS V14.01,2013-11-18 15:20:00,
2013-11-18 10:25:00,77.7,69.5,29.96,SSW,203,0.0,2.0,76,0.00,,CLR,0.00,VWS V14.01,2013-11-18 15:25:00,
2013-11-18 10:30:00,77.7,69.5,29.95,SSW,213,0.0,1.0,76,0.00,,CLR,0.00,VWS V14.01,2013-11-18 15:30:00,
2013-11-18 10:35:00,77.7,69.9,29.95,SSW,206,0.0,1.0,77,0.00,,CLR,0.00,VWS V14.01,2013-11-18 15:35:00,
2013-11-18 10:40:00,77.9,69.7,29.95,SSW,212,0.0,1.0,76,0.00,,CLR,0.00,VWS V14.01,2013-11-18 15:40:00,
2013-11-18 10:45:00,77.7,69.5,29.95,SW,227,3.0,3.0,76,0.00,,CLR,0.00,VWS V14.01,2013-11-18 15:45:00,
2013-11-18 10:50:00,77.6,69.4,29.95,SSW,212,0.0,3.0,76,0.00,,CLR,0.00,VWS V14.01,2013-11-18 15:50:00,
2013-11-18 10:51:00,77.6,69.4,29.95,SW,226,1.0,3.0,76,0.00,,CLR,0.00,VWS V14.01,2013-11-18 15:51:00,
2013-11-18 10:56:00,77.0,69.2,29.95,SW,227,0.0,3.0,77,0.00,,CLR,0.00,VWS V14.01,2013-11-18 15:56:00,
2013-11-18 11:00:00,77.0,69.2,29.96,SSW,203,0.0,3.0,77,0.00,,FEW080,0.00,VWS V14.01,2013-11-18 16:00:00,
2013-11-18 11:01:00,76.8,69.1,29.96,SW,220,0.0,5.0,77,0.00,,CLR,0.00,VWS V14.01,2013-11-18 16:01:00,
2013-11-18 11:06:00,76.8,69.4,29.96,SW,217,0.0,5.0,78,0.00,,CLR,0.00,VWS V14.01,2013-11-18 16:06:00,
2013-11-18 11:11:00,76.8,69.4,29.96,SW,224,1.0,5.0,78,0.00,,CLR,0.00,VWS V14.01,2013-11-18 16:11:00,
2013-11-18 11:16:00,77.2,69.8,29.96,SSW,212,0.0,5.0,78,0.00,,CLR,0.00,VWS V14.01,2013-11-18 16:16:00,
2013-11-18 11:21:00,77.2,69.4,29.96,SW,230,1.0,5.0,77,0.00,,CLR,0.00,VWS V14.01,2013-11-18 16:21:00,
2013-11-18 11:26:00,77.2,69.4,29.96,WSW,247,5.0,6.0,77,0.00,,CLR,0.00,VWS V14.01,2013-11-18 16:26:00,
2013-11-18 11:30:00,77.2,69.4,29.95,SW,229,0.0,6.0,77,0.00,,FEW080,0.00,VWS V14.01,2013-11-18 16:30:00,
2013-11-18 11:31:00,77.4,69.6,29.95,SSW,206,0.0,6.0,77,0.00,,CLR,0.00,VWS V14.01,2013-11-18 16:31:00,
2013-11-18 11:36:00,77.6,69.1,29.95,SSW,209,0.0,6.0,75,0.00,,CLR,0.00,VWS V14.01,2013-11-18 16:36:00,
2013-11-18 11:41:00,77.6,69.1,29.95,SW,220,0.0,7.0,75,0.00,,CLR,0.00,VWS V14.01,2013-11-18 16:41:00,
2013-11-18 11:46:00,77.7,69.2,29.94,SW,230,1.0,7.0,75,0.00,,CLR,0.00,VWS V14.01,2013-11-18 16:46:00,
2013-11-18 11:51:00,78.1,69.9,29.94,SSW,202,0.0,7.0,76,0.00,,CLR,0.00,VWS V14.01,2013-11-18 16:51:00,
2013-11-18 11:56:00,78.5,69.9,29.94,SSW,205,0.0,7.0,75,0.00,,CLR,0.00,VWS V14.01,2013-11-18 16:56:00,
2013-11-18 12:00:00,78.5,69.9,29.94,SSW,209,0.0,7.0,75,0.00,,FEW080,0.00,VWS V14.01,2013-11-18 17:00:00,
2013-11-18 12:01:00,78.5,69.9,29.94,SSW,203,0.0,2.0,75,0.00,,CLR,0.00,VWS V14.01,2013-11-18 17:01:00,
2013-11-18 12:06:00,78.6,69.6,29.94,SW,227,0.0,4.0,74,0.00,,CLR,0.00,VWS V14.01,2013-11-18 17:06:00,
2013-11-18 12:11:00,78.3,69.7,29.94,SW,220,6.0,6.0,75,0.00,,CLR,0.00,VWS V14.01,2013-11-18 17:11:00,
2013-11-18 12:16:00,78.1,69.9,29.93,SW,229,0.0,6.0,76,0.00,,CLR,0.00,VWS V14.01,2013-11-18 17:16:00,
2013-11-18 12:21:00,77.7,69.5,29.93,SW,230,0.0,6.0,76,0.00,,CLR,0.00,VWS V14.01,2013-11-18 17:21:00,
2013-11-18 12:26:00,77.9,69.7,29.93,SW,229,0.0,6.0,76,0.00,,CLR,0.00,VWS V14.01,2013-11-18 17:26:00,
2013-11-18 12:30:00,78.1,70.3,29.93,SW,223,0.0,6.0,77,0.00,,FEW080,0.00,VWS V14.01,2013-11-18 17:30:00,
2013-11-18 12:31:00,78.1,70.3,29.93,SW,227,0.0,3.0,77,0.00,,CLR,0.00,VWS V14.01,2013-11-18 17:31:00,
2013-11-18 12:36:00,78.1,70.3,29.93,SW,223,0.0,4.0,77,0.00,,CLR,0.00,VWS V14.01,2013-11-18 17:36:00,
2013-11-18 12:41:00,78.3,70.5,29.93,WSW,240,0.0,4.0,77,0.00,,CLR,0.00,VWS V14.01,2013-11-18 17:41:00,
2013-11-18 12:46:00,78.3,70.5,29.92,SW,229,0.0,4.0,77,0.00,,CLR,0.00,VWS V14.01,2013-11-18 17:46:00,
2013-11-18 12:51:00,78.3,70.1,29.92,SW,220,0.0,6.0,76,0.00,,CLR,0.00,VWS V14.01,2013-11-18 17:51:00,
2013-11-18 12:56:00,78.3,70.1,29.92,SW,223,0.0,6.0,76,0.00,,CLR,0.00,VWS V14.01,2013-11-18 17:56:00,
2013-11-18 13:00:00,78.5,70.3,29.92,SW,223,0.0,6.0,76,0.00,,FEW080,0.00,VWS V14.01,2013-11-18 18:00:00,
2013-11-18 13:01:00,78.3,69.7,29.92,SW,226,0.0,6.0,75,0.00,,FEW028,0.00,VWS V14.01,2013-11-18 18:01:00,
2013-11-18 13:06:00,78.3,69.7,29.92,SW,224,2.0,6.0,75,0.00,,FEW028,0.00,VWS V14.01,2013-11-18 18:06:00,
2013-11-18 13:11:00,78.3,70.1,29.92,SW,223,0.0,6.0,76,0.00,,FEW028,0.00,VWS V14.01,2013-11-18 18:11:00,
2013-11-18 13:16:00,78.3,69.7,29.91,SW,223,0.0,6.0,75,0.00,,FEW028,0.00,VWS V14.01,2013-11-18 18:16:00,
2013-11-18 13:21:00,78.3,69.7,29.91,SW,236,3.0,6.0,75,0.00,,FEW028,0.00,VWS V14.01,2013-11-18 18:21:00,
2013-11-18 13:26:00,78.1,69.9,29.91,SW,227,7.0,7.0,76,0.00,,FEW028,0.00,VWS V14.01,2013-11-18 18:26:00,
2013-11-18 13:30:00,77.9,69.7,29.91,SW,230,0.0,7.0,76,0.00,,FEW080,0.00,VWS V14.01,2013-11-18 18:30:00,
2013-11-18 13:31:00,77.7,69.5,29.91,SW,230,3.0,3.0,76,0.00,,FEW028,0.00,VWS V14.01,2013-11-18 18:31:00,
2013-11-18 13:36:00,77.2,69.1,29.91,SW,230,3.0,3.0,76,0.00,,FEW028,0.00,VWS V14.01,2013-11-18 18:36:00,
2013-11-18 13:41:00,76.8,69.8,29.91,SW,232,2.0,6.0,79,0.00,,FEW028,0.00,VWS V14.01,2013-11-18 18:41:00,
2013-11-18 13:46:00,76.7,69.7,29.90,SW,223,4.0,6.0,79,0.00,,FEW028,0.00,VWS V14.01,2013-11-18 18:46:00,
2013-11-18 13:51:00,76.5,69.1,29.90,SW,229,3.0,7.0,78,0.00,,FEW028,0.00,VWS V14.01,2013-11-18 18:51:00,
2013-11-18 13:56:00,76.5,69.5,29.90,SW,224,2.0,7.0,79,0.00,,FEW028,0.00,VWS V14.01,2013-11-18 18:56:00,
2013-11-18 14:00:00,76.5,69.5,29.90,SW,222,2.0,7.0,79,0.00,,FEW080,0.00,VWS V14.01,2013-11-18 19:00:00,
2013-11-18 14:01:00,76.7,69.7,29.90,SW,230,2.0,7.0,79,0.00,,SCT050,0.00,VWS V14.01,2013-11-18 19:01:00,
2013-11-18 14:06:00,76.8,69.8,29.90,SW,230,0.0,7.0,79,0.00,,SCT050,0.00,VWS V14.01,2013-11-18 19:06:00,
2013-11-18 14:11:00,77.0,69.6,29.90,SW,232,3.0,7.0,78,0.00,,SCT050,0.00,VWS V14.01,2013-11-18 19:11:00,
2013-11-18 14:16:00,77.0,70.0,29.90,SW,230,0.0,7.0,79,0.00,,SCT050,0.00,VWS V14.01,2013-11-18 19:16:00,
2013-11-18 14:21:00,76.8,69.8,29.90,SW,232,3.0,7.0,79,0.00,,SCT050,0.00,VWS V14.01,2013-11-18 19:21:00,
2013-11-18 14:26:00,76.8,69.8,29.90,SW,230,0.0,7.0,79,0.00,,SCT050,0.00,VWS V14.01,2013-11-18 19:26:00,
2013-11-18 14:30:00,76.7,69.7,29.90,SW,230,2.0,7.0,79,0.00,,FEW080,0.00,VWS V14.01,2013-11-18 19:30:00,
2013-11-18 14:31:00,76.7,70.1,29.90,SW,229,0.0,3.0,80,0.00,,SCT050,0.00,VWS V14.01,2013-11-18 19:31:00,
2013-11-18 14:36:00,76.3,69.7,29.90,SW,223,0.0,3.0,80,0.00,,SCT050,0.00,VWS V14.01,2013-11-18 19:36:00,
2013-11-18 14:41:00,76.3,69.7,29.90,SW,223,0.0,5.0,80,0.00,,SCT050,0.00,VWS V14.01,2013-11-18 19:41:00,
2013-11-18 14:46:00,76.3,69.7,29.89,SW,223,0.0,5.0,80,0.00,,SCT050,0.00,VWS V14.01,2013-11-18 19:46:00,
2013-11-18 14:51:00,76.1,69.8,29.89,SW,223,2.0,5.0,81,0.00,,SCT050,0.00,VWS V14.01,2013-11-18 19:51:00,
2013-11-18 14:56:00,76.0,69.8,29.89,SW,222,2.0,5.0,81,0.00,,SCT050,0.00,VWS V14.01,2013-11-18 19:56:00,
2013-11-18 15:00:00,76.0,69.8,29.89,SW,222,5.0,6.0,81,0.00,,FEW080,0.00,VWS V14.01,2013-11-18 20:00:00,
2013-11-18 15:01:00,76.0,69.8,29.89,SW,223,0.0,4.0,81,0.00,,BKN050,0.00,VWS V14.01,2013-11-18 20:01:00,
2013-11-18 15:06:00,76.0,69.8,29.89,SW,223,0.0,4.0,81,0.00,,BKN050,0.00,VWS V14.01,2013-11-18 20:06:00,
2013-11-18 15:11:00,76.3,70.1,29.89,SW,223,0.0,4.0,81,0.00,,BKN050,0.00,VWS V14.01,2013-11-18 20:11:00,
2013-11-18 15:16:00,76.5,70.2,29.89,SW,223,0.0,4.0,81,0.00,,BKN050,0.00,VWS V14.01,2013-11-18 20:16:00,
2013-11-18 15:21:00,76.5,69.9,29.89,SW,223,0.0,4.0,80,0.00,,BKN050,0.00,VWS V14.01,2013-11-18 20:21:00,
2013-11-18 15:26:00,76.3,70.1,29.89,SW,223,0.0,4.0,81,0.00,,BKN050,0.00,VWS V14.01,2013-11-18 20:26:00,
2013-11-18 15:30:00,76.3,70.1,29.89,SW,223,0.0,4.0,81,0.00,,FEW080,0.00,VWS V14.01,2013-11-18 20:30:00,
2013-11-18 15:31:00,76.3,70.1,29.89,SW,223,0.0,0.0,81,0.00,,BKN050,0.00,VWS V14.01,2013-11-18 20:31:00,
2013-11-18 15:36:00,76.0,70.1,29.89,SW,223,0.0,0.0,82,0.00,,BKN050,0.00,VWS V14.01,2013-11-18 20:36:00,
2013-11-18 15:41:00,75.8,70.3,29.89,SW,223,0.0,0.0,83,0.00,,BKN050,0.00,VWS V14.01,2013-11-18 20:41:00,
2013-11-18 15:46:00,75.4,70.2,29.89,SW,223,0.0,0.0,84,0.00,,BKN050,0.00,VWS V14.01,2013-11-18 20:46:00,
2013-11-18 15:51:00,75.4,70.2,29.89,SW,223,0.0,0.0,84,0.00,,BKN050,0.00,VWS V14.01,2013-11-18 20:51:00,
2013-11-18 15:56:00,75.3,70.1,29.89,SW,223,0.0,0.0,84,0.00,,BKN050,0.00,VWS V14.01,2013-11-18 20:56:00,
2013-11-18 16:00:00,75.3,70.1,29.88,SW,223,0.0,0.0,84,0.00,,FEW080,0.00,VWS V14.01,2013-11-18 21:00:00,
2013-11-18 16:01:00,75.3,70.5,29.88,SW,223,0.0,0.0,85,0.00,,CLR,0.00,VWS V14.01,2013-11-18 21:01:00,
2013-11-18 16:06:00,75.3,70.1,29.88,SW,223,0.0,0.0,84,0.00,,CLR,0.00,VWS V14.01,2013-11-18 21:06:00,
2013-11-18 16:11:00,75.3,70.5,29.88,SW,223,0.0,0.0,85,0.00,,CLR,0.00,VWS V14.01,2013-11-18 21:11:00,
2013-11-18 16:16:00,75.3,70.5,29.88,SW,223,0.0,0.0,85,0.00,,CLR,0.00,VWS V14.01,2013-11-18 21:16:00,
2013-11-18 16:21:00,75.3,70.5,29.88,SW,223,0.0,0.0,85,0.00,,CLR,0.00,VWS V14.01,2013-11-18 21:21:00,
2013-11-18 16:26:00,75.3,70.8,29.88,SW,223,0.0,0.0,86,0.00,,CLR,0.00,VWS V14.01,2013-11-18 21:26:00,
2013-11-18 16:30:00,75.1,70.6,29.88,SW,223,0.0,0.0,86,0.00,,FEW080,0.00,VWS V14.01,2013-11-18 21:30:00,
2013-11-18 16:31:00,75.1,70.6,29.88,SW,223,0.0,0.0,86,0.00,,CLR,0.00,VWS V14.01,2013-11-18 21:31:00,
2013-11-18 16:36:00,74.9,70.4,29.88,SW,223,0.0,0.0,86,0.00,,CLR,0.00,VWS V14.01,2013-11-18 21:36:00,
2013-11-18 16:41:00,74.9,70.8,29.88,SW,223,0.0,0.0,87,0.00,,CLR,0.00,VWS V14.01,2013-11-18 21:41:00,
2013-11-18 16:46:00,74.7,70.6,29.88,SW,223,0.0,0.0,87,0.00,,CLR,0.00,VWS V14.01,2013-11-18 21:46:00,
2013-11-18 16:51:00,74.9,70.8,29.88,SW,223,0.0,0.0,87,0.00,,CLR,0.00,VWS V14.01,2013-11-18 21:51:00,
2013-11-18 16:56:00,74.9,70.8,29.88,SW,223,0.0,0.0,87,0.00,,CLR,0.00,VWS V14.01,2013-11-18 21:56:00,
2013-11-18 17:00:00,74.9,70.8,29.88,SW,223,0.0,0.0,87,0.00,,FEW080,0.00,VWS V14.01,2013-11-18 22:00:00,
2013-11-18 17:01:00,74.9,70.8,29.88,SW,223,0.0,0.0,87,0.00,,FEW070,0.00,VWS V14.01,2013-11-18 22:01:00,
2013-11-18 17:06:00,74.7,70.6,29.88,SW,223,0.0,0.0,87,0.00,,FEW070,0.00,VWS V14.01,2013-11-18 22:06:00,
2013-11-18 17:11:00,74.7,70.6,29.88,SW,223,0.0,0.0,87,0.00,,FEW070,0.00,VWS V14.01,2013-11-18 22:11:00,
2013-11-18 17:16:00,74.7,70.9,29.88,SW,223,0.0,0.0,88,0.00,,FEW070,0.00,VWS V14.01,2013-11-18 22:16:00,
2013-11-18 17:21:00,74.7,70.9,29.88,SW,223,0.0,0.0,88,0.00,,FEW070,0.00,VWS V14.01,2013-11-18 22:21:00,
2013-11-18 17:26:00,74.6,70.8,29.88,SW,223,0.0,0.0,88,0.00,,FEW070,0.00,VWS V14.01,2013-11-18 22:26:00,
2013-11-18 17:30:00,74.6,70.8,29.88,SW,223,0.0,0.0,88,0.00,,FEW080,0.00,VWS V14.01,2013-11-18 22:30:00,
2013-11-18 17:31:00,74.6,70.8,29.88,SW,223,0.0,0.0,88,0.00,,FEW070,0.00,VWS V14.01,2013-11-18 22:31:00,
2013-11-18 17:36:00,74.4,70.9,29.88,SW,223,0.0,0.0,89,0.00,,FEW070,0.00,VWS V14.01,2013-11-18 22:36:00,
2013-11-18 17:41:00,74.4,70.9,29.88,SW,223,0.0,0.0,89,0.00,,FEW070,0.00,VWS V14.01,2013-11-18 22:41:00,
2013-11-18 17:46:00,74.4,70.9,29.88,SW,223,0.0,0.0,89,0.00,,FEW070,0.00,VWS V14.01,2013-11-18 22:46:00,
2013-11-18 17:51:00,74.4,70.9,29.88,SW,223,0.0,0.0,89,0.00,,FEW070,0.00,VWS V14.01,2013-11-18 22:51:00,
2013-11-18 17:56:00,74.4,70.9,29.88,SW,223,0.0,0.0,89,0.00,,FEW070,0.00,VWS V14.01,2013-11-18 22:56:00,
2013-11-18 18:00:00,74.4,70.9,29.88,SW,223,0.0,0.0,89,0.00,,FEW080,0.00,VWS V14.01,2013-11-18 23:00:00,
2013-11-18 18:01:00,74.2,70.8,29.88,SW,223,0.0,0.0,89,0.00,,CLR,0.00,VWS V14.01,2013-11-18 23:01:00,
2013-11-18 18:06:00,74.2,71.1,29.88,SW,223,0.0,0.0,90,0.00,,CLR,0.00,VWS V14.01,2013-11-18 23:06:00,
2013-11-18 18:11:00,74.2,71.1,29.88,SW,223,0.0,0.0,90,0.00,,CLR,0.00,VWS V14.01,2013-11-18 23:11:00,
2013-11-18 18:16:00,74.2,71.1,29.88,SW,223,0.0,0.0,90,0.00,,CLR,0.00,VWS V14.01,2013-11-18 23:16:00,
2013-11-18 18:21:00,74.2,71.1,29.88,SW,223,0.0,0.0,90,0.00,,CLR,0.00,VWS V14.01,2013-11-18 23:21:00,
2013-11-18 18:26:00,74.2,71.1,29.88,SW,223,0.0,0.0,90,0.00,,CLR,0.00,VWS V14.01,2013-11-18 23:26:00,
2013-11-18 18:30:00,74.0,70.9,29.88,SW,223,0.0,0.0,90,0.00,,FEW080,0.00,VWS V14.01,2013-11-18 23:30:00,
2013-11-18 18:31:00,74.0,70.9,29.88,SW,223,0.0,0.0,90,0.00,,CLR,0.00,VWS V14.01,2013-11-18 23:31:00,
2013-11-18 18:36:00,74.0,71.2,29.88,SW,223,0.0,0.0,91,0.00,,CLR,0.00,VWS V14.01,2013-11-18 23:36:00,
2013-11-18 18:41:00,74.0,71.2,29.88,SW,223,0.0,0.0,91,0.00,,CLR,0.00,VWS V14.01,2013-11-18 23:41:00,
2013-11-18 18:46:00,73.9,71.1,29.89,SW,223,0.0,0.0,91,0.00,,CLR,0.00,VWS V14.01,2013-11-18 23:46:00,
2013-11-18 18:51:00,73.9,71.1,29.89,SW,223,0.0,0.0,91,0.00,,CLR,0.00,VWS V14.01,2013-11-18 23:51:00,
2013-11-18 18:56:00,73.9,71.1,29.89,SW,223,0.0,0.0,91,0.00,,CLR,0.00,VWS V14.01,2013-11-18 23:56:00,
2013-11-18 19:00:00,73.9,71.1,29.89,SW,223,0.0,0.0,91,0.00,,FEW080,0.00,VWS V14.01,2013-11-19 00:00:00,
2013-11-18 19:01:00,73.9,71.1,29.89,SW,223,0.0,0.0,91,0.00,,OVC085,0.00,VWS V14.01,2013-11-19 00:01:00,
2013-11-18 19:06:00,73.9,71.1,29.89,SW,223,0.0,0.0,91,0.00,,OVC085,0.00,VWS V14.01,2013-11-19 00:06:00,
2013-11-18 19:11:00,73.9,71.1,29.89,SW,223,0.0,0.0,91,0.00,,OVC085,0.00,VWS V14.01,2013-11-19 00:11:00,
2013-11-18 19:16:00,73.7,71.2,29.89,SW,223,0.0,0.0,92,0.00,,OVC085,0.00,VWS V14.01,2013-11-19 00:16:00,
2013-11-18 19:21:00,73.7,71.2,29.89,SW,223,0.0,0.0,92,0.00,,OVC085,0.00,VWS V14.01,2013-11-19 00:21:00,
2013-11-18 19:26:00,73.7,71.2,29.89,SW,223,0.0,0.0,92,0.00,,OVC085,0.00,VWS V14.01,2013-11-19 00:26:00,
2013-11-18 19:30:00,73.7,71.2,29.89,SW,223,0.0,0.0,92,0.00,,FEW080,0.00,VWS V14.01,2013-11-19 00:30:00,
2013-11-18 19:31:00,73.7,71.2,29.89,SW,223,0.0,0.0,92,0.00,,OVC085,0.00,VWS V14.01,2013-11-19 00:31:00,
2013-11-18 19:36:00,73.7,71.2,29.89,SW,223,0.0,0.0,92,0.00,,OVC085,0.00,VWS V14.01,2013-11-19 00:36:00,
2013-11-18 19:41:00,73.7,71.2,29.89,SW,223,0.0,0.0,92,0.00,,OVC085,0.00,VWS V14.01,2013-11-19 00:41:00,
2013-11-18 19:46:00,73.7,71.2,29.89,SW,223,0.0,0.0,92,0.00,,OVC085,0.00,VWS V14.01,2013-11-19 00:46:00,
2013-11-18 19:51:00,73.5,71.0,29.89,SW,223,0.0,0.0,92,0.00,,OVC085,0.00,VWS V14.01,2013-11-19 00:51:00,
2013-11-18 19:56:00,73.5,71.0,29.89,SW,223,0.0,0.0,92,0.00,,OVC085,0.00,VWS V14.01,2013-11-19 00:56:00,
2013-11-18 20:00:00,73.5,71.0,29.88,SW,223,0.0,0.0,92,0.00,,FEW080,0.00,VWS V14.01,2013-11-19 01:00:00,
2013-11-18 20:01:00,73.7,71.2,29.88,SW,223,0.0,0.0,92,0.00,,BKN075,0.00,VWS V14.01,2013-11-19 01:01:00,
2013-11-18 20:06:00,73.7,71.2,29.88,SW,223,0.0,0.0,92,0.00,,BKN075,0.00,VWS V14.01,2013-11-19 01:06:00,
2013-11-18 20:11:00,73.7,71.2,29.88,SW,223,0.0,0.0,92,0.00,,BKN075,0.00,VWS V14.01,2013-11-19 01:11:00,
2013-11-18 20:16:00,73.7,71.2,29.87,SW,223,0.0,0.0,92,0.00,,BKN075,0.00,VWS V14.01,2013-11-19 01:16:00,
2013-11-18 20:21:00,73.7,71.2,29.87,SW,223,0.0,0.0,92,0.00,,BKN075,0.00,VWS V14.01,2013-11-19 01:21:00,
2013-11-18 20:26:00,73.7,71.2,29.87,SW,223,0.0,0.0,92,0.00,,BKN075,0.00,VWS V14.01,2013-11-19 01:26:00,
2013-11-18 20:30:00,73.7,71.2,29.87,SW,223,0.0,0.0,92,0.01,,FEW080,0.01,VWS V14.01,2013-11-19 01:30:00,
2013-11-18 20:31:00,73.9,71.4,29.87,SW,223,0.0,0.0,92,0.01,,BKN075,0.01,VWS V14.01,2013-11-19 01:31:00,
2013-11-18 20:36:00,73.9,71.4,29.87,SW,223,0.0,0.0,92,0.01,,BKN075,0.01,VWS V14.01,2013-11-19 01:36:00,
2013-11-18 20:41:00,73.7,71.6,29.87,SW,224,0.0,5.0,93,0.01,,BKN075,0.01,VWS V14.01,2013-11-19 01:41:00,
2013-11-18 20:44:00,73.7,71.6,29.88,SW,224,0.0,5.0,93,0.01,,BKN075,0.01,VWS V14.01,2013-11-19 01:44:00,
2013-11-18 20:49:00,73.7,71.6,29.88,SW,224,0.0,5.0,93,0.01,,BKN075,0.01,VWS V14.01,2013-11-19 01:49:00,
2013-11-18 20:54:00,73.7,71.6,29.88,SW,220,3.0,5.0,93,0.01,,BKN075,0.01,VWS V14.01,2013-11-19 01:54:00,
2013-11-18 20:59:00,73.7,71.9,29.89,SW,224,0.0,0.0,94,0.01,,BKN075,0.01,VWS V14.01,2013-11-19 01:59:00,
2013-11-18 21:00:00,73.7,71.9,29.89,SW,224,0.0,6.0,94,0.01,,FEW080,0.01,VWS V14.01,2013-11-19 02:00:00,
2013-11-18 21:04:00,73.7,71.9,29.89,SW,219,0.0,1.0,94,0.01,,BKN075,0.01,VWS V14.01,2013-11-19 02:04:00,
2013-11-18 21:09:00,73.7,71.9,29.89,SW,216,0.0,3.0,94,0.01,,BKN075,0.01,VWS V14.01,2013-11-19 02:09:00,
2013-11-18 21:14:00,73.5,71.7,29.88,SSW,198,0.0,3.0,94,0.01,,BKN075,0.01,VWS V14.01,2013-11-19 02:14:00,
2013-11-18 21:19:00,73.5,71.7,29.88,SSW,198,0.0,3.0,94,0.01,,BKN075,0.01,VWS V14.01,2013-11-19 02:19:00,
2013-11-18 21:24:00,73.5,71.7,29.88,SSW,198,0.0,3.0,94,0.01,,BKN075,0.01,VWS V14.01,2013-11-19 02:24:00,
2013-11-18 21:29:00,73.5,72.0,29.88,SSW,198,0.0,0.0,95,0.00,,BKN075,0.01,VWS V14.01,2013-11-19 02:29:00,
2013-11-18 21:30:00,73.5,71.7,29.88,SSW,198,0.0,3.0,94,0.01,,FEW080,0.01,VWS V14.01,2013-11-19 02:30:00,
2013-11-18 21:34:00,73.5,72.0,29.88,SSW,198,0.0,2.0,95,0.00,,BKN075,0.01,VWS V14.01,2013-11-19 02:34:00,
2013-11-18 21:39:00,73.3,71.8,29.88,SSW,198,0.0,2.0,95,0.00,,BKN075,0.01,VWS V14.01,2013-11-19 02:39:00,
2013-11-18 21:45:00,73.3,71.8,29.88,SSW,199,0.0,2.0,95,0.00,,BKN075,0.01,VWS V14.01,2013-11-19 02:45:00,
2013-11-18 21:50:00,73.3,71.8,29.88,SSW,203,0.0,5.0,95,0.00,,BKN075,0.01,VWS V14.01,2013-11-19 02:50:00,
2013-11-18 21:55:00,73.3,71.8,29.88,SSW,203,0.0,5.0,95,0.00,,BKN075,0.01,VWS V14.01,2013-11-19 02:55:00,
2013-11-18 22:00:00,73.3,71.8,29.88,SSW,210,0.0,0.0,95,0.00,,BKN075,0.01,VWS V14.01,2013-11-19 03:00:00,
2013-11-18 22:05:00,73.3,71.8,29.88,SW,224,0.0,1.0,95,0.00,,BKN036,0.01,VWS V14.01,2013-11-19 03:05:00,
2013-11-18 22:10:00,73.2,71.7,29.88,SW,224,0.0,1.0,95,0.00,,BKN036,0.01,VWS V14.01,2013-11-19 03:10:00,
2013-11-18 22:15:00,73.2,71.7,29.88,SW,224,0.0,1.0,95,0.00,,BKN036,0.01,VWS V14.01,2013-11-19 03:15:00,
2013-11-18 22:20:00,73.0,71.5,29.88,SW,223,2.0,3.0,95,0.00,,BKN036,0.01,VWS V14.01,2013-11-19 03:20:00,
2013-11-18 22:25:00,73.0,71.5,29.88,SW,223,2.0,5.0,95,0.00,,BKN036,0.01,VWS V14.01,2013-11-19 03:25:00,
2013-11-18 22:30:00,73.0,71.5,29.88,SW,222,0.0,0.0,95,0.00,,BKN036,0.01,VWS V14.01,2013-11-19 03:30:00,
2013-11-18 22:35:00,73.2,71.7,29.88,SW,222,0.0,0.0,95,0.00,,BKN036,0.01,VWS V14.01,2013-11-19 03:35:00,
2013-11-18 22:40:00,73.2,72.0,29.88,SW,222,0.0,0.0,96,0.00,,BKN036,0.01,VWS V14.01,2013-11-19 03:40:00,
2013-11-18 22:45:00,73.2,72.0,29.88,SW,223,0.0,3.0,96,0.00,,BKN036,0.01,VWS V14.01,2013-11-19 03:45:00,
2013-11-18 22:50:00,73.2,72.0,29.88,SW,222,0.0,3.0,96,0.00,,BKN036,0.01,VWS V14.01,2013-11-19 03:50:00,
2013-11-18 22:55:00,73.3,71.8,29.88,SW,217,0.0,5.0,95,0.00,,BKN036,0.01,VWS V14.01,2013-11-19 03:55:00,
2013-11-18 23:00:00,73.3,71.8,29.88,SW,224,0.0,0.0,95,0.00,,CLR,0.01,VWS V14.01,2013-11-19 04:00:00,
2013-11-18 23:05:00,73.3,71.8,29.88,SW,226,0.0,0.0,95,0.00,,CLR,0.01,VWS V14.01,2013-11-19 04:05:00,
2013-11-18 23:07:00,73.3,71.8,29.88,SW,226,0.0,2.0,95,0.00,,CLR,0.01,VWS V14.01,2013-11-19 04:07:00,
2013-11-18 23:12:00,73.3,71.8,29.88,SSW,212,0.0,6.0,95,0.00,,CLR,0.01,VWS V14.01,2013-11-19 04:12:00,
2013-11-18 23:17:00,73.3,71.8,29.87,SW,223,0.0,6.0,95,0.00,,CLR,0.01,VWS V14.01,2013-11-19 04:17:00,
2013-11-18 23:22:00,73.3,71.8,29.87,SSW,213,2.0,6.0,95,0.00,,CLR,0.01,VWS V14.01,2013-11-19 04:22:00,
2013-11-18 23:27:00,73.3,72.1,29.87,SSW,208,0.0,6.0,96,0.00,,CLR,0.01,VWS V14.01,2013-11-19 04:27:00,
2013-11-18 23:30:00,73.3,72.1,29.87,SSW,208,0.0,6.0,96,0.00,,FEW080,0.01,VWS V14.01,2013-11-19 04:30:00,
2013-11-18 23:32:00,73.3,72.1,29.87,SSW,206,0.0,0.0,96,0.00,,CLR,0.01,VWS V14.01,2013-11-19 04:32:00,
2013-11-18 23:37:00,73.3,72.1,29.87,SSW,210,0.0,0.0,96,0.00,,CLR,0.01,VWS V14.01,2013-11-19 04:37:00,
2013-11-18 23:42:00,73.2,72.0,29.87,SSW,210,0.0,0.0,96,0.00,,CLR,0.01,VWS V14.01,2013-11-19 04:42:00,
2013-11-18 23:47:00,73.2,72.0,29.87,SSW,210,0.0,0.0,96,0.00,,CLR,0.01,VWS V14.01,2013-11-19 04:47:00,
2013-11-18 23:52:00,73.2,72.0,29.87,SSW,210,0.0,0.0,96,0.00,,CLR,0.01,VWS V14.01,2013-11-19 04:52:00,
2013-11-18 23:57:00,73.2,72.0,29.87,SSW,210,0.0,0.0,96,0.00,,CLR,0.01,VWS V14.01,2013-11-19 04:57:00,